Time;durP1;ratioP1;P1;durP2;ratioP2;P2;SDS_P1;SDS_P2;PMS_P1;PMS_P2;Temp;Humidity;BMP_temperature;BMP_pressure;BME280_temperature;BME280_humidity;BME280_pressure;Samples;Min_cycle;Max_cycle;Signal;HPM_P1;HPM_P2
2022/07/25 00:02:02;;;;;;;4.25;2.00;;;;;;;21.96;73.60;101026.25;5070256;28;20132;-35
2022/07/25 00:04:33;;;;;;;3.75;2.28;;;;;;;21.97;73.24;101021.38;5070922;28;20045;-30
2022/07/25 00:07:02;;;;;;;3.50;2.00;;;;;;;21.96;73.43;101019.75;5071001;28;20052;-34
2022/07/25 00:09:30;;;;;;;2.75;1.77;;;;;;;21.95;73.27;101018.91;5070449;28;20059;-34
2022/07/25 00:11:58;;;;;;;3.03;2.03;;;;;;;21.95;73.48;101032.28;5072488;28;20050;-35
2022/07/25 00:14:26;;;;;;;2.80;1.85;;;;;;;21.93;73.60;101024.13;5074378;28;20132;-32
2022/07/25 00:16:55;;;;;;;2.85;2.00;;;;;;;21.92;73.45;101010.31;5074204;28;20056;-33
2022/07/25 00:19:23;;;;;;;2.53;1.77;;;;;;;21.89;73.90;101014.72;5074377;28;20131;-32
2022/07/25 00:21:51;;;;;;;2.38;1.75;;;;;;;21.85;74.46;101005.28;5074505;28;20128;-30
2022/07/25 00:24:18;;;;;;;3.13;2.00;;;;;;;21.82;74.79;101005.19;5073909;28;20048;-39
2022/07/25 00:26:46;;;;;;;3.05;2.30;;;;;;;21.77;75.38;101005.50;5074373;28;20132;-32
2022/07/25 00:29:14;;;;;;;3.28;1.98;;;;;;;21.73;75.26;101005.44;5074035;28;20562;-36
2022/07/25 00:31:42;;;;;;;2.53;1.80;;;;;;;21.72;75.13;101000.09;5073869;28;20045;-32
2022/07/25 00:34:11;;;;;;;3.00;1.88;;;;;;;21.71;75.49;101001.31;5074457;28;20050;-36
2022/07/25 00:36:39;;;;;;;2.92;2.00;;;;;;;21.67;75.55;100985.00;5071549;28;20489;-30
2022/07/25 00:39:07;;;;;;;3.55;2.38;;;;;;;21.65;75.85;100976.03;5074301;28;20510;-38
2022/07/25 00:41:35;;;;;;;4.32;2.42;;;;;;;21.63;75.76;100972.72;5074132;28;20572;-34
2022/07/25 00:44:03;;;;;;;2.95;1.98;;;;;;;21.61;75.92;100965.78;5073740;28;20063;-37
2022/07/25 00:46:31;;;;;;;4.40;2.78;;;;;;;21.57;76.26;100962.88;5073837;28;20127;-31
2022/07/25 00:48:59;;;;;;;3.30;2.47;;;;;;;21.56;76.39;100966.09;5073981;28;20452;-36
2022/07/25 00:51:28;;;;;;;3.60;2.20;;;;;;;21.56;76.03;100961.22;5071999;28;20418;-38
2022/07/25 00:53:57;;;;;;;7.05;3.05;;;;;;;21.57;75.93;100962.06;5074117;28;20076;-33
2022/07/25 00:56:25;;;;;;;5.45;3.13;;;;;;;21.57;75.67;100951.50;5073688;28;20076;-31
2022/07/25 00:58:53;;;;;;;3.95;2.70;;;;;;;21.55;75.92;100942.53;5073343;28;20135;-34
2022/07/25 01:01:21;;;;;;;3.90;2.38;;;;;;;21.56;75.95;100937.69;5073644;28;20055;-37
2022/07/25 01:03:48;;;;;;;3.70;2.45;;;;;;;21.54;76.11;100932.38;5073719;28;20397;-32
2022/07/25 01:06:17;;;;;;;4.63;2.70;;;;;;;21.53;76.13;100933.56;5073292;28;20054;-32
2022/07/25 01:08:46;;;;;;;3.95;2.33;;;;;;;21.54;76.11;100935.22;5073822;28;20206;-31
2022/07/25 01:11:14;;;;;;;3.50;2.35;;;;;;;21.54;76.01;100928.72;5073376;28;20044;-31
2022/07/25 01:13:42;;;;;;;3.78;2.50;;;;;;;21.56;75.90;100929.16;5073066;28;20135;-36
2022/07/25 01:16:10;;;;;;;5.03;3.08;;;;;;;21.57;76.08;100931.63;5058939;28;20051;-38
2022/07/25 01:18:38;;;;;;;3.42;2.80;;;;;;;21.55;76.18;100936.03;5062607;28;20083;-32
2022/07/25 01:21:07;;;;;;;3.75;2.60;;;;;;;21.52;76.92;100920.56;5072997;28;20048;-37
2022/07/25 01:23:35;;;;;;;3.85;2.65;;;;;;;21.49;77.70;100929.81;5072322;28;20048;-34
2022/07/25 01:26:03;;;;;;;4.50;3.42;;;;;;;21.47;78.11;100925.72;5072557;28;20175;-32
2022/07/25 01:28:31;;;;;;;4.97;3.25;;;;;;;21.43;78.74;100916.28;5069916;28;20091;-35
2022/07/25 01:30:59;;;;;;;3.67;2.80;;;;;;;21.40;78.48;100909.31;5073573;28;20835;-30
2022/07/25 01:33:27;;;;;;;5.07;3.03;;;;;;;21.39;78.66;100904.00;5072232;28;20466;-32
2022/07/25 01:35:55;;;;;;;4.95;3.20;;;;;;;;;;5073384;28;20060;-32
2022/07/25 01:38:24;;;;;;;3.95;2.83;;;;;;;21.39;78.74;100896.31;5072802;28;20045;-36
2022/07/25 01:40:52;;;;;;;5.18;2.92;;;;;;;21.39;78.40;100898.34;5073188;28;20468;-30
2022/07/25 01:43:19;;;;;;;3.97;2.70;;;;;;;21.41;78.21;100890.28;5071738;28;20416;-30
2022/07/25 01:45:47;;;;;;;4.50;2.50;;;;;;;21.42;78.33;100889.06;5073016;28;20165;-38
2022/07/25 01:48:15;;;;;;;3.58;2.70;;;;;;;21.43;78.47;100893.56;5072287;28;20055;-32
2022/07/25 01:50:43;;;;;;;3.95;2.72;;;;;;;21.44;78.48;100896.03;5072982;28;20064;-37
2022/07/25 01:53:11;;;;;;;4.25;2.58;;;;;;;21.45;78.77;100886.31;5072350;28;20127;-30
2022/07/25 01:55:40;;;;;;;3.83;2.50;;;;;;;21.43;78.86;100885.88;5072467;28;20080;-32
2022/07/25 01:58:09;;;;;;;4.72;2.72;;;;;;;21.44;79.02;100883.84;5072732;28;20045;-31
2022/07/25 02:00:38;;;;;;;4.30;3.13;;;;;;;21.43;79.23;100885.88;5071512;28;20452;-31
2022/07/25 02:05:51;;;;;;;3.72;2.80;;;;;;;21.43;79.76;100880.19;5073123;28;20047;-33
2022/07/25 02:08:19;;;;;;;4.53;3.05;;;;;;;21.44;79.51;100864.81;5071918;28;20426;-32
2022/07/25 02:10:48;;;;;;;3.20;2.60;;;;;;;21.45;79.82;100874.13;5072603;28;20052;-38
2022/07/25 02:13:16;;;;;;;3.83;2.88;;;;;;;21.40;80.34;100861.06;5072292;28;20468;-37
2022/07/25 02:15:44;;;;;;;3.42;3.00;;;;;;;21.36;81.24;100859.38;5071746;28;20074;-41
2022/07/25 02:18:12;;;;;;;4.68;2.75;;;;;;;21.34;81.37;100862.56;5072174;28;20462;-31
2022/07/25 02:20:40;;;;;;;4.30;3.10;;;;;;;21.30;82.15;100850.31;5072337;28;20056;-31
2022/07/25 02:23:08;;;;;;;3.67;2.65;;;;;;;21.29;81.98;100854.34;5071520;28;20523;-37
2022/07/25 02:25:35;;;;;;;4.80;2.88;;;;;;;21.29;82.22;100851.50;5072286;28;20143;-37
2022/07/25 02:28:05;;;;;;;4.97;3.10;;;;;;;21.30;82.23;100844.63;5071966;28;20058;-37
2022/07/25 02:30:33;;;;;;;3.60;2.50;;;;;;;21.27;81.97;100853.88;5071703;28;20119;-32
2022/07/25 02:33:00;;;;;;;3.60;2.80;;;;;;;21.27;82.68;100860.38;5072458;28;20052;-37
2022/07/25 02:35:28;;;;;;;4.13;2.65;;;;;;;21.26;82.95;100853.06;5071161;28;20048;-31
2022/07/25 02:37:56;;;;;;;2.90;2.33;;;;;;;21.25;83.23;100844.91;5071656;28;20059;-31
2022/07/25 02:40:24;;;;;;;4.40;2.78;;;;;;;21.21;84.10;100847.66;5071865;28;20497;-33
2022/07/25 02:42:52;;;;;;;4.60;3.40;;;;;;;21.15;85.53;100842.66;5071796;28;20047;-31
2022/07/25 02:45:21;;;;;;;4.43;3.05;;;;;;;21.10;85.88;100851.44;5071199;28;20070;-31
2022/07/25 02:47:49;;;;;;;3.75;2.75;;;;;;;21.06;86.04;100837.16;5071999;28;20060;-41
2022/07/25 02:50:17;;;;;;;4.75;2.95;;;;;;;21.02;85.97;100833.41;5071131;28;20123;-32
2022/07/25 02:52:45;;;;;;;3.47;2.53;;;;;;;20.99;86.22;100828.47;5071870;28;20071;-39
2022/07/25 02:55:13;;;;;;;4.07;2.78;;;;;;;20.96;86.39;100821.56;5071621;28;20051;-35
2022/07/25 02:57:41;;;;;;;5.70;3.47;;;;;;;20.92;87.16;100832.00;5070742;28;20052;-30
2022/07/25 03:00:10;;;;;;;5.47;3.63;;;;;;;20.84;88.63;100823.69;5069948;28;20037;-33
2022/07/25 03:02:39;;;;;;;4.53;3.33;;;;;;;20.76;89.12;100819.88;5069582;28;20157;-30
2022/07/25 03:05:08;;;;;;;4.00;3.25;;;;;;;20.70;89.13;100818.50;5068584;28;20054;-33
2022/07/25 03:07:37;;;;;;;3.85;2.60;;;;;;;20.67;88.78;100815.59;5069841;28;20053;-30
2022/07/25 03:10:07;;;;;;;3.78;2.83;;;;;;;20.65;88.51;100813.13;5069851;28;20060;-31
2022/07/25 03:12:38;;;;;;;4.97;3.30;;;;;;;20.62;88.82;100809.00;5070031;28;20054;-30
2022/07/25 03:15:07;;;;;;;5.70;3.30;;;;;;;20.60;89.02;100804.88;5070119;28;20072;-34
2022/07/25 03:17:35;;;;;;;3.40;3.00;;;;;;;20.58;89.23;100818.63;5071411;28;20094;-39
2022/07/25 03:20:07;;;;;;;4.45;2.40;;;;;;;20.56;89.32;100813.34;5070971;28;20055;-32
2022/07/25 03:22:35;;;;;;;5.72;3.00;;;;;;;20.54;88.93;100817.72;5071442;28;20040;-30
2022/07/25 03:25:04;;;;;;;5.50;3.42;;;;;;;20.52;89.18;100820.09;5071104;28;20040;-38
2022/07/25 03:27:41;;;;;;;3.75;2.78;;;;;;;20.51;89.76;100818.44;5071351;28;20059;-32
2022/07/25 03:30:11;;;;;;;3.47;2.60;;;;;;;20.50;89.73;100819.63;5071052;28;20052;-32
2022/07/25 03:32:38;;;;;;;5.15;3.65;;;;;;;20.48;89.64;100825.66;5068495;28;20044;-32
2022/07/25 03:35:09;;;;;;;4.28;3.10;;;;;;;20.49;90.32;100809.47;5069543;28;20094;-32
2022/07/25 03:37:36;;;;;;;4.18;2.97;;;;;;;20.44;90.75;100823.94;5068781;28;20049;-35
2022/07/25 03:40:05;;;;;;;4.75;3.05;;;;;;;20.42;90.94;100817.81;5068903;28;20055;-31
2022/07/25 03:42:33;;;;;;;4.65;3.28;;;;;;;20.40;91.06;100820.19;5068883;28;20037;-31
2022/07/25 03:45:02;;;;;;;4.60;2.88;;;;;;;20.37;91.13;100810.41;5069246;28;20417;-31
2022/07/25 03:47:30;;;;;;;3.70;2.50;;;;;;;20.35;90.96;100812.75;5072651;28;20386;-30
2022/07/25 03:49:57;;;;;;;3.45;2.90;;;;;;;20.36;91.14;100807.94;5055364;28;20059;-36
2022/07/25 03:52:26;;;;;;;3.22;2.40;;;;;;;20.36;91.67;100813.59;5069243;28;20386;-34
2022/07/25 03:54:54;;;;;;;3.47;2.83;;;;;;;20.33;91.52;100806.63;5074784;28;20055;-32
2022/07/25 03:57:22;;;;;;;3.85;3.25;;;;;;;20.32;91.68;100815.50;5075077;28;20466;-37
2022/07/25 03:59:50;;;;;;;3.25;2.53;;;;;;;20.31;91.66;100814.69;5074987;28;20490;-32
2022/07/25 04:02:17;;;;;;;4.63;2.60;;;;;;;20.29;91.96;100812.22;5074076;28;20057;-31
2022/07/25 04:04:45;;;;;;;4.20;2.95;;;;;;;20.29;92.44;100808.56;5075116;28;20084;-30
2022/07/25 04:07:13;;;;;;;5.10;3.03;;;;;;;20.32;93.23;100801.34;5074823;28;20067;-36
2022/07/25 04:09:42;;;;;;;5.07;2.97;;;;;;;20.35;94.09;100800.59;5074516;28;20095;-31
2022/07/25 04:12:10;;;;;;;4.47;2.75;;;;;;;20.41;96.44;100794.31;5074750;28;20040;-41
2022/07/25 04:14:38;;;;;;;4.10;2.80;;;;;;;20.49;97.52;100786.81;5074060;28;20071;-40
2022/07/25 04:17:06;;;;;;;7.22;3.35;;;;;;;20.57;99.06;100777.28;5075030;28;21191;-33
2022/07/25 04:19:35;;;;;;;7.18;3.00;;;;;;;20.64;100.00;100783.13;5074972;28;20474;-38
2022/07/25 04:22:03;;;;;;;3.63;2.40;;;;;;;20.67;100.00;100773.88;5074127;28;20147;-30
2022/07/25 04:24:31;;;;;;;3.80;2.75;;;;;;;20.71;100.00;100774.78;5073850;28;20044;-41
2022/07/25 04:27:00;;;;;;;4.15;2.80;;;;;;;20.72;100.00;100779.25;5074414;28;20048;-31
2022/07/25 04:29:28;;;;;;;5.18;2.90;;;;;;;20.74;100.00;100782.56;5073926;28;20155;-38
2022/07/25 04:31:56;;;;;;;6.20;3.17;;;;;;;20.76;100.00;100787.84;5074838;28;20131;-32
2022/07/25 04:34:25;;;;;;;5.18;2.72;;;;;;;20.76;100.00;100788.69;5074270;28;20049;-35
2022/07/25 04:36:52;;;;;;;6.50;3.10;;;;;;;20.78;100.00;100794.81;5074024;28;20052;-34
2022/07/25 04:39:20;;;;;;;3.97;2.47;;;;;;;20.76;100.00;100788.69;5074269;28;20048;-40
2022/07/25 04:41:48;;;;;;;5.55;2.67;;;;;;;20.78;100.00;100789.13;5074117;28;20052;-31
2022/07/25 04:44:17;;;;;;;4.53;2.45;;;;;;;20.79;100.00;100789.94;5073888;28;20045;-33
2022/07/25 04:46:45;;;;;;;3.85;2.20;;;;;;;20.78;100.00;100789.13;5074545;28;20060;-33
2022/07/25 04:49:13;;;;;;;3.20;2.28;;;;;;;20.80;100.00;100778.22;5073817;28;20059;-31
2022/07/25 04:51:41;;;;;;;3.92;2.20;;;;;;;20.83;100.00;100773.81;5073932;28;20076;-35
2022/07/25 04:54:09;;;;;;;3.15;2.30;;;;;;;20.85;100.00;100775.09;5074295;28;20053;-33
2022/07/25 04:56:37;;;;;;;2.83;2.08;;;;;;;20.86;100.00;100773.91;5074002;28;20087;-32
2022/07/25 04:59:05;;;;;;;3.58;2.15;;;;;;;20.89;100.00;100773.16;5073481;28;20141;-37
2022/07/25 05:01:35;;;;;;;3.47;2.33;;;;;;;20.92;100.00;100780.94;5074067;28;20040;-33
2022/07/25 05:04:03;;;;;;;2.78;1.80;;;;;;;20.93;100.00;100771.25;5072831;28;20145;-32
2022/07/25 05:06:32;;;;;;;2.92;2.00;;;;;;;20.92;100.00;100766.75;5073909;28;20048;-34
2022/07/25 05:08:59;;;;;;;3.05;2.00;;;;;;;20.93;100.00;100762.72;5073476;28;20048;-32
2022/07/25 05:11:27;;;;;;;5.03;1.80;;;;;;;20.93;100.00;100757.06;5073554;28;20533;-31
2022/07/25 05:13:55;;;;;;;2.53;1.80;;;;;;;20.91;100.00;100748.09;5073848;28;20125;-33
2022/07/25 05:16:23;;;;;;;2.95;1.75;;;;;;;20.94;100.00;100755.03;5073714;28;20040;-31
2022/07/25 05:18:52;;;;;;;2.72;1.58;;;;;;;20.95;100.00;100765.19;5073041;28;20067;-37
2022/07/25 05:21:20;;;;;;;3.65;1.83;;;;;;;20.98;100.00;100767.28;5073283;28;20052;-33
2022/07/25 05:23:48;;;;;;;2.38;1.40;;;;;;;20.99;100.00;100758.38;5073536;28;20055;-31
2022/07/25 05:26:15;;;;;;;3.20;1.48;;;;;;;21.03;100.00;100751.97;5072658;28;20596;-35
2022/07/25 05:28:43;;;;;;;4.00;1.70;;;;;;;21.08;100.00;100746.81;5073870;28;20486;-31
2022/07/25 05:31:11;;;;;;;3.95;1.60;;;;;;;21.13;100.00;100766.41;5072947;28;20049;-31
2022/07/25 05:33:39;;;;;;;2.70;1.55;;;;;;;21.17;100.00;100761.63;5073005;28;20545;-31
2022/07/25 05:36:09;;;;;;;3.03;1.40;;;;;;;21.18;100.00;100762.44;5073229;28;20728;-32
2022/07/25 05:38:37;;;;;;;2.72;1.38;;;;;;;21.20;100.00;100774.25;5053318;28;20128;-36
2022/07/25 05:41:05;;;;;;;3.92;1.40;;;;;;;21.23;100.00;100793.38;5067289;28;20028;-32
2022/07/25 05:43:32;;;;;;;2.72;1.50;;;;;;;21.25;100.00;100780.47;5072881;28;20158;-35
2022/07/25 05:46:02;;;;;;;3.38;1.40;;;;;;;21.30;100.00;100776.50;5070730;28;20062;-31
2022/07/25 05:48:30;;;;;;;2.92;1.63;;;;;;;21.35;100.00;100773.38;5072062;28;20140;-38
2022/07/25 05:50:58;;;;;;;4.50;1.40;;;;;;;21.45;100.00;100767.06;5072834;28;20075;-33
2022/07/25 05:53:28;;;;;;;2.90;1.40;;;;;;;21.49;100.00;100779.34;5072338;28;20143;-33
2022/07/25 05:55:56;;;;;;;3.08;1.70;;;;;;;21.50;100.00;100795.16;5072308;28;20050;-38
2022/07/25 05:58:23;;;;;;;2.55;1.25;;;;;;;21.48;100.00;100791.06;5071664;28;20118;-34
2022/07/25 06:00:57;;;;;;;2.55;1.40;;;;;;;21.44;100.00;100801.53;5072016;28;20094;-32
2022/07/25 06:03:24;;;;;;;2.63;1.60;;;;;;;21.40;100.00;100806.28;5072709;28;20496;-37
2022/07/25 06:05:54;;;;;;;4.40;1.88;;;;;;;21.41;100.00;100794.56;5072604;28;20041;-39
2022/07/25 06:08:22;;;;;;;3.25;1.50;;;;;;;21.43;100.00;100783.66;5072308;28;20059;-33
2022/07/25 06:10:52;;;;;;;4.68;1.70;;;;;;;21.51;100.00;100787.47;5070679;28;20041;-33
2022/07/25 06:13:21;;;;;;;3.47;1.38;;;;;;;21.55;100.00;100788.38;5072288;28;20074;-33
2022/07/25 06:15:50;;;;;;;3.65;1.52;;;;;;;21.58;100.00;100794.09;5071887;28;20049;-33
2022/07/25 06:18:18;;;;;;;5.55;1.50;;;;;;;21.56;100.00;100796.53;5069883;28;20164;-35
2022/07/25 06:20:46;;;;;;;4.03;1.30;;;;;;;21.48;100.00;100794.72;5071649;28;20055;-32
2022/07/25 06:23:13;;;;;;;3.85;1.50;;;;;;;21.39;100.00;100793.28;5071470;28;20054;-32
2022/07/25 06:25:41;;;;;;;4.05;1.58;;;;;;;21.30;100.00;100800.03;5071254;28;20199;-32
2022/07/25 06:28:18;;;;;;;4.70;1.40;;;;;;;21.21;100.00;100776.72;5071209;28;20485;-38
2022/07/25 06:30:46;;;;;;;3.95;1.55;;;;;;;21.17;100.00;100786.34;5072629;28;20059;-31
2022/07/25 06:33:14;;;;;;;6.18;1.70;;;;;;;21.14;100.00;100779.41;5070795;28;20421;-39
2022/07/25 06:35:42;;;;;;;5.53;1.42;;;;;;;21.12;100.00;100781.78;5072333;28;20119;-42
2022/07/25 06:38:10;;;;;;;5.53;1.67;;;;;;;21.09;100.00;100784.53;5071775;28;20040;-42
2022/07/25 06:40:38;;;;;;;5.43;1.65;;;;;;;21.04;100.00;100774.28;5071856;28;20507;-32
2022/07/25 06:43:05;;;;;;;5.03;1.77;;;;;;;20.99;100.00;100778.25;5071637;28;20049;-38
2022/07/25 06:45:35;;;;;;;5.35;1.85;;;;;;;20.97;100.00;100783.50;5070981;28;20599;-38
2022/07/25 06:48:03;;;;;;;5.65;1.40;;;;;;;20.94;100.00;100778.56;5071362;28;20049;-38
2022/07/25 06:50:31;;;;;;;6.35;1.77;;;;;;;20.95;100.00;100782.22;5071868;28;20053;-34
2022/07/25 06:52:59;;;;;;;6.40;1.90;;;;;;;20.94;100.00;100774.91;5071521;28;20050;-33
2022/07/25 06:55:26;;;;;;;5.40;1.52;;;;;;;20.97;100.00;100777.81;5072017;28;20064;-35
2022/07/25 06:57:54;;;;;;;8.38;1.77;;;;;;;20.97;100.00;100769.31;5071409;28;20063;-33
2022/07/25 07:00:22;;;;;;;8.68;1.88;;;;;;;20.96;100.00;100769.69;5071826;28;20124;-34
2022/07/25 07:02:55;;;;;;;6.03;1.67;;;;;;;20.97;100.00;100763.63;5071527;28;20052;-33
2022/07/25 07:05:26;;;;;;;6.35;1.67;;;;;;;20.99;100.00;100769.72;5071278;28;20090;-33
2022/07/25 07:07:54;;;;;;;4.00;1.23;;;;;;;21.04;100.00;100757.28;5071860;28;20136;-33
2022/07/25 07:10:23;;;;;;;5.78;1.70;;;;;;;21.09;100.00;100750.47;5071173;28;20071;-35
2022/07/25 07:12:51;;;;;;;9.43;1.83;;;;;;;21.12;100.00;100747.72;5071680;28;20060;-32
2022/07/25 07:15:19;;;;;;;5.65;1.45;;;;;;;21.15;100.00;100757.50;5071489;28;20490;-33
2022/07/25 07:17:46;;;;;;;9.35;2.45;;;;;;;21.17;100.00;100760.81;5071073;28;20123;-37
2022/07/25 07:20:16;;;;;;;8.10;2.15;;;;;;;21.21;100.00;100767.38;5067571;28;20127;-40
2022/07/25 07:22:44;;;;;;;8.77;1.90;;;;;;;21.19;100.00;100752.72;5070851;28;20052;-33
2022/07/25 07:25:14;;;;;;;8.45;1.70;;;;;;;21.18;100.00;100780.28;5070852;28;20090;-34
2022/07/25 07:27:42;;;;;;;7.82;2.05;;;;;;;21.19;100.00;100752.72;5071789;28;20040;-34
2022/07/25 07:30:13;;;;;;;6.95;1.73;;;;;;;21.10;100.00;100772.00;5071070;28;20501;-33
2022/07/25 07:32:41;;;;;;;6.80;1.50;;;;;;;20.96;100.00;100753.47;5071234;28;20048;-33
2022/07/25 07:35:10;;;;;;;5.53;1.60;;;;;;;20.90;100.00;100760.63;5071607;28;20036;-39
2022/07/25 07:37:39;;;;;;;7.20;1.63;;;;;;;20.83;100.00;100749.13;5071597;28;20635;-41
2022/07/25 07:40:11;;;;;;;6.68;1.80;;;;;;;20.77;100.00;100767.63;5069695;28;20452;-33
2022/07/25 07:42:48;;;;;;;8.55;1.85;;;;;;;20.71;100.00;100760.59;5051461;28;20482;-37
2022/07/25 07:45:18;;;;;;;7.40;1.95;;;;;;;20.67;100.00;100778.72;5065967;28;20044;-32
2022/07/25 07:47:47;;;;;;;6.70;2.15;;;;;;;20.67;100.00;100773.03;5071041;28;20140;-32
2022/07/25 07:50:16;;;;;;;7.25;2.00;;;;;;;20.72;100.00;100782.09;5071164;28;20052;-32
2022/07/25 07:52:46;;;;;;;6.90;1.80;;;;;;;20.80;100.00;100766.88;5070898;28;20088;-32
2022/07/25 07:58:00;;;;;;;6.20;1.75;;;;;;;21.00;100.00;100776.22;5071414;28;20052;-34
2022/07/25 08:00:29;;;;;;;7.90;2.35;;;;;;;21.09;100.00;100781.69;5070575;28;20051;-32
2022/07/25 08:02:59;;;;;;;9.15;1.75;;;;;;;21.11;100.00;100770.78;5071228;28;20044;-33
2022/07/25 08:05:29;;;;;;;9.63;1.98;;;;;;;21.21;100.00;100758.88;5070572;28;20140;-33
2022/07/25 08:07:59;;;;;;;8.20;1.92;;;;;;;21.35;100.00;100767.69;5070729;28;20075;-34
2022/07/25 08:10:29;;;;;;;7.10;1.98;;;;;;;21.56;100.00;100770.97;5071136;28;20041;-38
2022/07/25 08:12:57;;;;;;;12.57;2.58;;;;;;;21.86;100.00;100773.13;5071453;28;20058;-36
2022/07/25 08:15:26;;;;;;;7.53;2.10;;;;;;;22.19;100.00;100784.72;5070537;28;20048;-40
2022/07/25 08:17:54;;;;;;;6.47;2.10;;;;;;;22.68;100.00;100790.41;5071124;28;20505;-32
2022/07/25 08:20:22;;;;;;;8.05;1.98;;;;;;;23.02;100.00;100771.41;5070626;28;20055;-41
2022/07/25 08:23:09;;;;;;;8.52;1.90;;;;;;;23.53;100.00;100772.88;5071027;28;20130;-33
2022/07/25 08:25:38;;;;;;;9.00;1.75;;;;;;;23.80;100.00;100762.97;5070688;28;20036;-40
2022/07/25 08:28:06;;;;;;;5.88;1.70;;;;;;;24.14;100.00;100780.03;5070560;28;20048;-36
2022/07/25 08:30:35;;;;;;;6.13;1.52;;;;;;;24.53;100.00;100771.81;5070895;28;20040;-33
2022/07/25 08:33:05;;;;;;;10.60;1.90;;;;;;;24.57;100.00;100773.50;5072296;28;20076;-42
2022/07/25 08:35:34;;;;;;;7.07;1.80;;;;;;;24.34;100.00;100782.28;5073793;28;20072;-34
2022/07/25 08:38:04;;;;;;;7.97;1.75;;;;;;;24.07;100.00;100792.16;5074614;28;20048;-39
2022/07/25 08:40:34;;;;;;;7.63;2.20;;;;;;;23.83;100.00;100798.44;5074196;28;20131;-35
2022/07/25 08:43:02;;;;;;;7.65;2.33;;;;;;;23.52;100.00;100783.47;5070618;28;20628;-33
2022/07/25 08:45:29;;;;;;;6.30;1.95;;;;;;;23.29;100.00;100783.56;5074368;28;20074;-41
2022/07/25 08:47:57;;;;;;;8.27;1.85;;;;;;;23.15;100.00;100788.25;5073753;28;20202;-42
2022/07/25 08:50:27;;;;;;;6.53;1.55;;;;;;;22.97;100.00;100794.53;5074100;28;20056;-40
2022/07/25 08:52:55;;;;;;;5.63;1.60;;;;;;;22.86;100.00;100804.91;5074179;28;20155;-41
2022/07/25 08:55:45;;;;;;;8.93;2.10;;;;;;;22.75;100.00;100803.09;5074492;28;20048;-33
2022/07/25 08:58:14;;;;;;;6.40;1.77;;;;;;;22.69;100.00;100780.66;5073543;28;20458;-32
2022/07/25 09:00:43;;;;;;;10.50;1.80;;;;;;;22.71;100.00;100763.22;5074293;28;20523;-32
2022/07/25 09:03:12;;;;;;;8.70;2.03;;;;;;;22.75;100.00;100752.69;5073284;28;20045;-40
2022/07/25 09:05:40;;;;;;;8.02;1.52;;;;;;;22.89;100.00;100784.22;5072924;28;20059;-35
2022/07/25 09:08:09;;;;;;;6.18;1.75;;;;;;;23.03;100.00;100777.91;5073583;28;20072;-34
2022/07/25 09:10:39;;;;;;;7.53;1.85;;;;;;;23.09;100.00;100798.31;5073400;28;20044;-39
2022/07/25 09:13:12;;;;;;;8.95;2.00;;;;;;;23.14;100.00;100792.31;5073659;28;20155;-33
2022/07/25 09:15:44;;;;;;;10.30;2.05;;;;;;;23.17;100.00;100802.91;5072570;28;20048;-35
2022/07/25 09:18:14;;;;;;;9.50;1.90;;;;;;;23.24;100.00;100794.44;5072046;28;20049;-36
2022/07/25 09:20:45;;;;;;;9.27;1.87;;;;;;;23.24;100.00;100798.13;5072263;28;20052;-32
2022/07/25 09:23:15;;;;;;;9.20;2.10;;;;;;;23.18;100.00;100804.56;5072931;28;20408;-37
2022/07/25 09:25:43;;;;;;;8.55;2.10;;;;;;;23.26;100.00;100814.81;5072709;28;20087;-36
2022/07/25 09:28:14;;;;;;;8.70;2.08;;;;;;;23.42;100.00;100817.47;5073221;28;20412;-41
2022/07/25 09:30:54;;;;;;;7.72;1.77;;;;;;;23.55;100.00;100816.03;5073497;28;20055;-38
2022/07/25 09:33:24;;;;;;;7.25;1.88;;;;;;;23.54;100.00;100820.91;5072769;28;20094;-39
2022/07/25 09:35:53;;;;;;;9.23;2.17;;;;;;;23.45;100.00;100817.50;5073165;28;20151;-36
2022/07/25 09:38:24;;;;;;;10.57;2.30;;;;;;;23.33;100.00;100809.22;5072908;28;20040;-33
2022/07/25 09:40:56;;;;;;;8.80;2.10;;;;;;;23.10;100.00;100817.03;5073475;28;20048;-33
2022/07/25 09:43:36;;;;;;;7.55;2.03;;;;;;;22.94;100.00;100829.44;5072644;28;20282;-39
2022/07/25 09:46:04;;;;;;;9.23;2.10;;;;;;;22.93;100.00;100813.56;5072322;28;20044;-38
2022/07/25 09:48:33;;;;;;;7.05;1.70;;;;;;;22.82;100.00;100823.94;5073042;28;20474;-32
2022/07/25 09:51:01;;;;;;;9.43;2.15;;;;;;;22.79;100.00;100821.03;5072507;28;20052;-37
2022/07/25 09:53:29;;;;;;;8.77;2.60;;;;;;;22.71;100.00;100840.03;5071809;28;20043;-33
2022/07/25 09:55:56;;;;;;;8.05;2.47;;;;;;;22.73;100.00;100840.47;5073014;28;20044;-33
2022/07/25 09:58:27;;;;;;;9.90;2.53;;;;;;;22.79;100.00;100846.66;5072546;28;20059;-31
2022/07/25 10:01:01;;;;;;;9.67;2.37;;;;;;;22.77;100.00;100844.22;5072883;28;20052;-33
2022/07/25 10:03:47;;;;;;;9.55;2.35;;;;;;;22.66;100.00;100843.19;5072699;28;20053;-34
2022/07/25 10:06:21;;;;;;;9.63;2.38;;;;;;;22.77;100.00;100847.06;5061416;28;20482;-31
2022/07/25 10:08:51;;;;;;;7.13;2.10;;;;;;;22.72;100.00;100846.53;5072765;28;20062;-31
2022/07/25 10:11:20;;;;;;;8.48;2.10;;;;;;;22.64;100.00;100869.16;5071002;28;20053;-31
2022/07/25 10:13:50;;;;;;;8.73;2.28;;;;;;;22.60;100.00;100850.38;5072127;28;20473;-39
2022/07/25 10:16:19;;;;;;;8.15;2.20;;;;;;;22.56;100.00;100838.97;5072539;28;20520;-33
2022/07/25 10:18:49;;;;;;;12.02;2.58;;;;;;;22.56;100.00;100844.66;5072375;28;20083;-39
2022/07/25 10:21:18;;;;;;;8.60;2.45;;;;;;;22.52;100.00;100851.50;5068673;28;20037;-31
2022/07/25 10:23:59;;;;;;;10.88;2.30;;;;;;;22.71;100.00;100861.97;5072630;28;20106;-32
2022/07/25 10:26:27;;;;;;;7.50;2.25;;;;;;;23.10;100.00;100854.06;5067439;28;20522;-32
2022/07/25 10:28:58;;;;;;;10.20;2.33;;;;;;;23.51;100.00;100843.63;5071938;28;20140;-35
2022/07/25 10:31:34;;;;;;;12.52;2.58;;;;;;;23.99;100.00;100836.06;5072340;28;20044;-40
2022/07/25 10:34:03;;;;;;;10.20;2.65;;;;;;;24.43;100.00;100856.09;5072128;28;20056;-30
2022/07/25 10:36:42;;;;;;;11.93;2.58;;;;;;;24.45;99.18;100859.38;5070954;28;20036;-37
2022/07/25 10:39:12;;;;;;;8.93;2.40;;;;;;;24.59;99.30;100855.81;5072175;28;20056;-35
2022/07/25 10:41:41;;;;;;;8.50;2.50;;;;;;;24.81;97.80;100866.19;5071581;28;20056;-32
2022/07/25 10:44:13;;;;;;;12.30;2.92;;;;;;;24.97;94.85;100860.25;5072206;28;20056;-38
2022/07/25 10:46:43;;;;;;;7.57;2.15;;;;;;;25.09;94.74;100876.22;5071916;28;20048;-34
2022/07/25 10:49:18;;;;;;;8.38;2.70;;;;;;;25.14;93.04;100867.28;5071641;28;20063;-36
2022/07/25 10:51:55;;;;;;;11.05;2.50;;;;;;;25.26;92.18;100879.19;5071949;28;20049;-36
2022/07/25 10:54:23;;;;;;;10.23;2.72;;;;;;;25.45;89.52;100883.78;5071943;28;20409;-33
2022/07/25 10:56:53;;;;;;;8.80;2.95;;;;;;;25.37;88.19;100867.84;5070886;28;20045;-33
2022/07/25 10:59:31;;;;;;;8.38;2.38;;;;;;;25.35;85.77;100868.22;5072346;28;20053;-34
2022/07/25 11:02:00;;;;;;;9.27;2.88;;;;;;;25.63;87.38;100869.59;5071627;28;20041;-33
2022/07/25 11:04:28;;;;;;;9.57;3.03;;;;;;;25.86;87.09;100880.72;5051384;28;20570;-36
2022/07/25 11:06:57;;;;;;;8.70;2.50;;;;;;;26.15;84.75;100882.44;5066105;28;20847;-41
2022/07/25 11:09:27;;;;;;;11.60;2.70;;;;;;;26.09;82.70;100878.34;5071246;28;20135;-40
2022/07/25 11:11:57;;;;;;;9.32;2.63;;;;;;;26.21;83.18;100877.94;5070969;28;20052;-33
2022/07/25 11:14:31;;;;;;;11.10;2.67;;;;;;;26.49;81.05;100891.53;5071368;28;20064;-36
2022/07/25 11:17:11;;;;;;;10.57;2.80;;;;;;;26.65;79.73;100888.25;5071059;28;20043;-32
2022/07/25 11:19:39;;;;;;;11.15;2.78;;;;;;;26.51;79.73;100883.34;5071564;28;20486;-36
2022/07/25 11:22:07;;;;;;;10.30;2.75;;;;;;;26.43;80.24;100879.66;5071071;28;20041;-41
2022/07/25 11:24:36;;;;;;;9.68;2.33;;;;;;;26.40;80.77;100882.50;5071085;28;20563;-41
2022/07/25 11:27:04;;;;;;;11.80;3.00;;;;;;;26.46;79.85;100882.94;5071685;28;20043;-34
2022/07/25 11:29:41;;;;;;;10.32;2.80;;;;;;;26.37;78.64;100878.44;5071523;28;20056;-37
2022/07/25 11:32:10;;;;;;;7.82;3.15;;;;;;;26.28;79.24;100892.28;5070760;28;20044;-33
2022/07/25 11:34:41;;;;;;;13.00;2.83;;;;;;;26.04;79.58;100888.13;5071507;28;20562;-32
2022/07/25 11:37:11;;;;;;;6.88;2.38;;;;;;;25.81;80.98;100881.91;5071499;28;20052;-33